createdAt,value
2018-03-21T00:02:21.396Z,14.63
2018-03-21T00:04:48.950Z,13.38
2018-03-21T00:07:16.480Z,16.50
2018-03-21T00:09:44.040Z,14.45
2018-03-21T00:12:11.615Z,16.00
2018-03-21T00:14:39.145Z,14.68
2018-03-21T00:17:07.475Z,14.20
2018-03-21T00:19:35.032Z,18.10
2018-03-21T00:22:02.565Z,14.07
2018-03-21T00:24:30.118Z,15.80
2018-03-21T00:26:57.679Z,12.52
2018-03-21T00:29:25.236Z,13.05
2018-03-21T00:31:52.778Z,12.95
2018-03-21T00:34:21.098Z,10.13
2018-03-21T00:36:48.641Z,16.12
2018-03-21T00:39:16.203Z,15.45
2018-03-21T00:41:43.744Z,11.38
2018-03-21T00:44:12.072Z,13.02
2018-03-21T00:46:39.601Z,11.10
2018-03-21T00:49:07.234Z,10.10
2018-03-21T00:51:34.733Z,8.13
2018-03-21T00:54:02.320Z,13.62
2018-03-21T00:56:31.373Z,9.52
2018-03-21T00:58:58.932Z,10.70
2018-03-21T01:01:26.464Z,12.70
2018-03-21T01:03:54.021Z,12.10
2018-03-21T01:06:21.584Z,10.73
2018-03-21T01:08:49.132Z,8.82
2018-03-21T01:11:16.675Z,11.77
2018-03-21T01:13:44.224Z,11.23
2018-03-21T01:16:11.778Z,10.10
2018-03-21T01:18:40.086Z,9.27
2018-03-21T01:21:07.641Z,12.02
2018-03-21T01:23:35.182Z,12.48
2018-03-21T01:26:02.755Z,11.63
2018-03-21T01:28:30.300Z,9.32
2018-03-21T01:30:57.859Z,9.65
2018-03-21T01:33:26.164Z,8.73
2018-03-21T01:35:53.726Z,12.93
2018-03-21T01:38:21.265Z,8.68
2018-03-21T01:40:48.827Z,11.45
2018-03-21T01:43:16.357Z,8.27
2018-03-21T01:45:44.680Z,9.68
2018-03-21T01:48:12.223Z,13.02
2018-03-21T01:50:39.764Z,11.18
2018-03-21T01:53:10.894Z,8.18
2018-03-21T01:55:39.205Z,9.85
2018-03-21T01:58:06.765Z,9.38
2018-03-21T02:00:34.300Z,19.35
2018-03-21T02:03:02.628Z,7.82
2018-03-21T02:05:30.160Z,9.10
2018-03-21T02:07:57.704Z,12.13
2018-03-21T02:10:25.997Z,8.43
2018-03-21T02:12:53.560Z,10.25
2018-03-21T02:15:21.095Z,11.00
2018-03-21T02:17:49.413Z,10.85
2018-03-21T02:20:16.957Z,7.87
2018-03-21T02:22:44.527Z,9.63
2018-03-21T02:25:12.056Z,11.95
2018-03-21T02:27:40.356Z,11.98
2018-03-21T02:30:07.908Z,10.45
2018-03-21T02:32:35.449Z,10.52
2018-03-21T02:35:03.778Z,10.43
2018-03-21T02:37:31.328Z,10.70
2018-03-21T02:39:58.886Z,10.73
2018-03-21T02:42:27.184Z,7.25
2018-03-21T02:44:54.747Z,10.70
2018-03-21T02:47:22.279Z,10.13
2018-03-21T02:49:49.817Z,15.55
2018-03-21T02:52:17.377Z,9.68
2018-03-21T02:54:44.926Z,9.10
2018-03-21T02:57:13.248Z,10.68
2018-03-21T02:59:40.797Z,11.82
2018-03-21T03:02:08.382Z,13.35
2018-03-21T03:04:35.922Z,8.02
2018-03-21T03:07:03.505Z,12.37
2018-03-21T03:09:31.091Z,14.65
2018-03-21T03:12:00.157Z,7.68
2018-03-21T03:14:27.701Z,6.93
2018-03-21T03:16:55.241Z,10.88
2018-03-21T03:19:22.801Z,11.00
2018-03-21T03:21:50.417Z,10.27
2018-03-21T03:24:17.964Z,9.82
2018-03-21T03:26:45.509Z,9.07
2018-03-21T03:29:13.105Z,12.40
2018-03-21T03:31:40.642Z,11.30
2018-03-21T03:34:08.268Z,13.23
2018-03-21T03:36:35.804Z,8.10
2018-03-21T03:39:04.125Z,13.50
2018-03-21T03:41:31.649Z,16.70
2018-03-21T03:43:59.222Z,14.60
2018-03-21T03:46:26.770Z,8.90
2018-03-21T03:48:54.313Z,10.65
2018-03-21T03:51:22.632Z,15.30
2018-03-21T03:53:50.167Z,12.85
2018-03-21T03:56:17.720Z,12.80
2018-03-21T03:58:46.065Z,11.43
2018-03-21T04:01:13.597Z,15.75
2018-03-21T04:03:41.177Z,8.70
2018-03-21T04:06:08.732Z,11.73
2018-03-21T04:08:36.285Z,16.45
2018-03-21T04:11:03.870Z,14.73
2018-03-21T04:13:31.425Z,17.87
2018-03-21T04:15:58.976Z,12.57
2018-03-21T04:18:26.521Z,13.20
2018-03-21T04:20:55.556Z,13.68
2018-03-21T04:23:23.876Z,13.90
2018-03-21T04:25:51.449Z,13.43
2018-03-21T04:28:19.020Z,14.65
2018-03-21T04:30:46.560Z,13.02
2018-03-21T04:33:14.124Z,14.00
2018-03-21T04:35:41.663Z,13.10
2018-03-21T04:38:09.239Z,18.65
2018-03-21T04:40:36.802Z,21.23
2018-03-21T04:43:04.372Z,18.65
2018-03-21T04:45:31.905Z,22.70
2018-03-21T04:47:59.437Z,26.62
2018-03-21T04:50:27.012Z,33.83
2018-03-21T04:52:54.553Z,29.23
2018-03-21T04:55:22.110Z,23.50
2018-03-21T04:57:49.651Z,48.45
2018-03-21T05:00:17.234Z,35.50
2018-03-21T05:02:44.773Z,38.83
2018-03-21T05:05:12.336Z,35.50
2018-03-21T05:07:39.867Z,21.12
2018-03-21T05:10:07.424Z,19.65
2018-03-21T05:12:34.961Z,19.77
2018-03-21T05:15:02.500Z,18.67
2018-03-21T05:17:30.826Z,17.62
2018-03-21T05:19:58.380Z,18.27
2018-03-21T05:22:25.941Z,14.82
2018-03-21T05:24:53.485Z,15.07
2018-03-21T05:27:21.042Z,18.05
2018-03-21T05:29:48.587Z,20.90
2018-03-21T05:32:16.149Z,21.40
2018-03-21T05:34:44.457Z,24.23
2018-03-21T05:37:12.011Z,18.52
2018-03-21T05:39:39.562Z,20.37
2018-03-21T05:42:07.129Z,16.67
2018-03-21T05:44:34.664Z,32.50
2018-03-21T05:47:02.977Z,22.13
2018-03-21T05:49:30.547Z,20.20
2018-03-21T05:51:58.080Z,16.92
2018-03-21T05:54:25.629Z,22.33
2018-03-21T05:56:53.192Z,21.45
2018-03-21T05:59:20.775Z,18.85
2018-03-21T06:01:48.360Z,18.83
2018-03-21T06:04:15.944Z,21.80
2018-03-21T06:06:44.286Z,15.85
2018-03-21T06:09:11.828Z,21.15
2018-03-21T06:11:39.381Z,16.10
2018-03-21T06:14:06.920Z,17.83
2018-03-21T06:16:34.481Z,19.70
2018-03-21T06:19:02.032Z,17.75
2018-03-21T06:21:30.363Z,14.38
2018-03-21T06:23:57.917Z,14.60
2018-03-21T06:26:25.467Z,11.98
2018-03-21T06:28:53.017Z,9.35
2018-03-21T06:31:20.560Z,8.27
2018-03-21T06:33:48.885Z,10.05
2018-03-21T06:36:16.412Z,8.68
2018-03-21T06:38:43.969Z,9.20
2018-03-21T06:41:11.497Z,8.00
2018-03-21T06:43:39.808Z,8.60
2018-03-21T06:46:07.358Z,11.30
2018-03-21T06:48:34.920Z,11.35
2018-03-21T06:51:02.474Z,9.23
2018-03-21T06:53:30.035Z,7.12
2018-03-21T06:55:57.588Z,7.32
2018-03-21T06:58:25.934Z,10.07
2018-03-21T07:00:53.480Z,9.35
2018-03-21T07:03:21.041Z,8.00
2018-03-21T07:05:48.614Z,8.57
2018-03-21T07:08:16.170Z,9.93
2018-03-21T07:10:43.712Z,9.30
2018-03-21T07:13:11.267Z,11.70
2018-03-21T07:15:50.677Z,9.55
2018-03-21T07:18:18.252Z,22.48
2018-03-21T07:20:45.860Z,25.37
2018-03-21T07:23:13.414Z,7.62
2018-03-21T07:25:40.934Z,12.77
2018-03-21T07:28:08.459Z,8.35
2018-03-21T07:30:36.784Z,7.78
2018-03-21T07:33:04.317Z,7.70
2018-03-21T07:35:31.866Z,10.25
2018-03-21T07:38:00.165Z,6.72
2018-03-21T07:40:27.718Z,8.10
2018-03-21T07:42:55.245Z,7.97
2018-03-21T07:45:22.785Z,8.63
2018-03-21T07:47:50.321Z,9.95
2018-03-21T07:50:17.903Z,9.68
2018-03-21T07:52:45.444Z,6.97
2018-03-21T07:55:12.994Z,9.25
2018-03-21T07:57:40.517Z,7.45
2018-03-21T08:00:08.823Z,8.85
2018-03-21T08:02:36.373Z,6.87
2018-03-21T08:05:03.905Z,7.37
2018-03-21T08:07:31.464Z,9.80
2018-03-21T08:09:58.984Z,7.12
2018-03-21T08:12:26.542Z,7.37
2018-03-21T08:14:54.081Z,6.35
2018-03-21T08:17:21.640Z,6.12
2018-03-21T08:19:49.184Z,6.28
2018-03-21T08:22:17.501Z,5.93
2018-03-21T08:24:46.022Z,5.20
2018-03-21T08:27:13.590Z,4.30
2018-03-21T08:29:41.166Z,4.10
2018-03-21T08:32:08.710Z,4.90
2018-03-21T08:34:36.272Z,6.95
2018-03-21T08:37:03.809Z,2.37
2018-03-21T08:39:31.368Z,2.75
2018-03-21T08:41:58.924Z,3.03
2018-03-21T08:44:26.472Z,2.53
2018-03-21T08:46:54.805Z,2.97
2018-03-21T08:49:22.333Z,3.27
2018-03-21T08:51:49.892Z,2.80
2018-03-21T08:54:17.461Z,4.10
2018-03-21T08:56:45.009Z,6.03
2018-03-21T08:59:12.564Z,2.67
2018-03-21T09:01:40.898Z,2.93
2018-03-21T09:04:08.433Z,3.27
2018-03-21T09:06:35.982Z,5.10
2018-03-21T09:09:03.526Z,3.47
2018-03-21T09:11:31.052Z,5.63
2018-03-21T09:13:59.381Z,3.80
2018-03-21T09:16:26.924Z,3.03
2018-03-21T09:18:54.525Z,3.20
2018-03-21T09:21:22.073Z,3.50
2018-03-21T09:23:49.629Z,3.40
2018-03-21T09:26:17.161Z,4.60
2018-03-21T09:28:44.715Z,3.60
2018-03-21T09:31:13.020Z,3.30
2018-03-21T09:33:40.574Z,3.43
2018-03-21T09:36:08.115Z,4.10
2018-03-21T09:38:35.679Z,4.30
2018-03-21T09:41:03.224Z,2.80
2018-03-21T09:43:31.551Z,4.20
2018-03-21T09:45:59.103Z,2.40
2018-03-21T09:48:26.634Z,4.03
2018-03-21T09:50:54.199Z,3.63
2018-03-21T09:53:21.894Z,3.53
2018-03-21T09:55:49.484Z,3.80
2018-03-21T09:58:17.007Z,4.67
2018-03-21T10:00:44.620Z,4.50
2018-03-21T10:03:12.141Z,4.93
2018-03-21T10:05:39.716Z,3.70
2018-03-21T10:08:07.256Z,4.47
2018-03-21T10:10:34.817Z,3.20
2018-03-21T10:13:02.351Z,4.90
2018-03-21T10:15:29.909Z,4.63
2018-03-21T10:17:57.448Z,3.33
2018-03-21T10:20:24.989Z,5.53
2018-03-21T10:22:53.308Z,4.13
2018-03-21T10:25:20.836Z,4.32
2018-03-21T10:27:48.409Z,3.80
2018-03-21T10:30:15.950Z,2.73
2018-03-21T10:32:44.282Z,3.35
2018-03-21T10:35:11.949Z,3.93
2018-03-21T10:37:39.491Z,3.10
2018-03-21T10:40:07.033Z,3.00
2018-03-21T10:42:34.580Z,4.60
2018-03-21T10:45:02.143Z,3.43
2018-03-21T10:47:29.709Z,3.20
2018-03-21T10:49:57.232Z,2.93
2018-03-21T10:52:38.594Z,4.50
2018-03-21T10:54:53.117Z,2.70
2018-03-21T10:57:20.661Z,3.07
2018-03-21T10:59:48.216Z,2.50
2018-03-21T11:02:15.751Z,2.17
2018-03-21T11:04:44.081Z,2.70
2018-03-21T11:07:11.623Z,4.80
2018-03-21T11:09:39.229Z,3.13
2018-03-21T11:12:06.772Z,2.43
2018-03-21T11:14:34.323Z,2.80
2018-03-21T11:17:01.857Z,12.30
2018-03-21T11:19:29.393Z,2.60
2018-03-21T11:21:57.710Z,4.80
2018-03-21T11:24:25.281Z,4.30
2018-03-21T11:26:52.813Z,7.07
2018-03-21T11:29:20.363Z,3.00
2018-03-21T11:31:47.957Z,2.60
2018-03-21T11:34:15.490Z,9.18
2018-03-21T11:36:43.021Z,4.25
2018-03-21T11:39:11.351Z,3.47
2018-03-21T11:41:38.892Z,4.95
2018-03-21T11:44:06.471Z,3.33
2018-03-21T11:46:33.990Z,4.70
2018-03-21T11:49:02.303Z,3.15
2018-03-21T11:51:30.768Z,3.00
2018-03-21T11:53:58.324Z,3.75
2018-03-21T11:56:25.902Z,6.00
2018-03-21T11:58:54.201Z,3.20
2018-03-21T12:01:21.768Z,4.75
2018-03-21T12:03:49.302Z,3.00
2018-03-21T12:06:16.865Z,5.37
2018-03-21T12:08:44.441Z,4.07
2018-03-21T12:11:12.004Z,3.95
2018-03-21T12:13:39.530Z,3.78
2018-03-21T12:16:07.081Z,5.28
2018-03-21T12:18:34.623Z,3.85
2018-03-21T12:21:02.934Z,5.35
2018-03-21T12:23:30.469Z,2.90
2018-03-21T12:25:58.944Z,2.90
2018-03-21T12:28:27.261Z,6.28
2018-03-21T12:30:54.921Z,3.95
2018-03-21T12:33:22.465Z,5.07
2018-03-21T12:35:49.995Z,2.87
2018-03-21T12:38:18.341Z,4.87
2018-03-21T12:40:45.875Z,3.37
2018-03-21T12:43:13.427Z,3.20
2018-03-21T12:45:40.952Z,3.15
2018-03-21T12:48:09.311Z,3.37
2018-03-21T12:50:36.850Z,3.30
2018-03-21T12:53:04.397Z,3.28
2018-03-21T12:55:31.933Z,2.60
2018-03-21T12:57:59.482Z,2.15
2018-03-21T13:00:27.028Z,3.03
2018-03-21T13:02:54.562Z,3.83
2018-03-21T13:05:22.901Z,2.53
2018-03-21T13:07:50.424Z,3.90
2018-03-21T13:10:18.002Z,2.97
2018-03-21T13:12:45.550Z,2.53
2018-03-21T13:15:13.101Z,4.65
2018-03-21T13:17:40.626Z,2.70
2018-03-21T13:20:08.182Z,2.95
2018-03-21T13:22:35.709Z,3.05
2018-03-21T13:25:03.284Z,5.30
2018-03-21T13:27:30.832Z,6.95
2018-03-21T13:29:58.373Z,7.50
2018-03-21T13:32:25.902Z,3.75
2018-03-21T13:34:54.236Z,4.40
2018-03-21T13:37:21.780Z,3.83
2018-03-21T13:39:49.330Z,4.00
2018-03-21T13:42:16.887Z,4.75
2018-03-21T13:44:44.464Z,3.35
2018-03-21T13:47:12.025Z,8.90
2018-03-21T13:49:39.556Z,4.85
2018-03-21T13:52:07.120Z,2.42
2018-03-21T13:54:34.641Z,5.60
2018-03-21T13:57:02.217Z,5.05
2018-03-21T13:59:30.510Z,3.17
2018-03-21T14:01:58.065Z,2.70
2018-03-21T14:04:26.352Z,4.50
2018-03-21T14:06:53.904Z,3.30
2018-03-21T14:09:22.197Z,3.05
2018-03-21T14:11:49.754Z,2.72
2018-03-21T14:14:17.279Z,3.10
2018-03-21T14:16:45.596Z,2.45
2018-03-21T14:19:13.124Z,3.10
2018-03-21T14:21:41.436Z,3.08
2018-03-21T14:24:08.985Z,2.97
2018-03-21T14:26:36.522Z,2.92
2018-03-21T14:29:05.794Z,2.55
2018-03-21T14:31:33.317Z,5.22
2018-03-21T14:34:00.863Z,2.12
2018-03-21T14:36:29.046Z,2.22
2018-03-21T14:38:58.255Z,2.15
2018-03-21T14:41:25.847Z,2.12
2018-03-21T14:43:54.217Z,3.00
2018-03-21T14:46:21.772Z,3.65
2018-03-21T14:48:49.340Z,2.20
2018-03-21T14:51:16.886Z,2.87
2018-03-21T14:53:44.427Z,2.55
2018-03-21T14:56:11.992Z,3.10
2018-03-21T14:58:39.836Z,3.53
2018-03-21T15:01:07.391Z,2.62
2018-03-21T15:03:34.941Z,2.53
2018-03-21T15:06:03.268Z,1.73
2018-03-21T15:08:30.809Z,2.10
2018-03-21T15:10:58.372Z,1.83
2018-03-21T15:13:25.934Z,3.83
2018-03-21T15:15:53.500Z,3.47
2018-03-21T15:18:21.034Z,2.60
2018-03-21T15:20:48.585Z,2.58
2018-03-21T15:23:16.117Z,2.75
2018-03-21T15:25:44.446Z,11.05
2018-03-21T15:28:11.980Z,1.80
2018-03-21T15:30:40.296Z,4.35
2018-03-21T15:33:07.843Z,1.70
2018-03-21T15:35:35.370Z,2.15
2018-03-21T15:38:03.735Z,2.28
2018-03-21T15:40:32.040Z,1.65
2018-03-21T15:42:59.588Z,3.83
2018-03-21T15:45:27.884Z,1.67
2018-03-21T15:47:55.615Z,2.05
2018-03-21T15:50:23.146Z,3.70
2018-03-21T15:52:50.724Z,4.00
2018-03-21T15:55:19.062Z,4.00
2018-03-21T15:57:46.613Z,2.50
2018-03-21T16:00:14.140Z,1.90
2018-03-21T16:02:42.450Z,3.50
2018-03-21T16:05:10.036Z,2.42
2018-03-21T16:07:37.586Z,2.47
2018-03-21T16:10:05.145Z,2.85
2018-03-21T16:12:32.688Z,3.90
2018-03-21T16:15:00.244Z,2.95
2018-03-21T16:17:27.784Z,2.05
2018-03-21T16:19:56.097Z,2.72
2018-03-21T16:22:23.642Z,3.17
2018-03-21T16:24:51.169Z,2.00
2018-03-21T16:27:19.487Z,2.22
2018-03-21T16:29:47.027Z,3.35
2018-03-21T16:32:14.620Z,2.03
2018-03-21T16:34:42.158Z,2.60
2018-03-21T16:37:09.717Z,2.10
2018-03-21T16:39:37.263Z,2.30
2018-03-21T16:42:05.580Z,2.00
2018-03-21T16:44:33.112Z,1.75
2018-03-21T16:47:00.651Z,2.03
2018-03-21T16:49:28.991Z,1.50
2018-03-21T16:51:56.541Z,1.50
2018-03-21T16:54:24.106Z,1.42
2018-03-21T16:56:51.675Z,2.65
2018-03-21T16:59:19.234Z,2.40
2018-03-21T17:01:46.773Z,1.70
2018-03-21T17:04:14.314Z,1.70
2018-03-21T17:06:42.612Z,2.47
2018-03-21T17:09:10.162Z,3.05
2018-03-21T17:11:37.694Z,2.65
2018-03-21T17:14:05.232Z,4.37
2018-03-21T17:16:32.802Z,3.00
2018-03-21T17:19:00.329Z,3.00
2018-03-21T17:21:27.889Z,3.53
2018-03-21T17:23:55.422Z,4.47
2018-03-21T17:26:23.014Z,1.50
2018-03-21T17:28:50.537Z,1.50
2018-03-21T17:31:18.103Z,2.17
2018-03-21T17:33:45.676Z,2.10
2018-03-21T17:36:13.225Z,5.00
2018-03-21T17:38:40.777Z,5.78
2018-03-21T17:41:08.340Z,2.35
2018-03-21T17:43:36.658Z,3.67
2018-03-21T17:46:04.219Z,2.78
2018-03-21T17:48:31.780Z,1.65
2018-03-21T17:50:59.338Z,4.97
2018-03-21T17:53:26.889Z,2.53
2018-03-21T17:55:54.426Z,3.08
2018-03-21T17:58:21.992Z,2.70
2018-03-21T18:00:49.522Z,3.00
2018-03-21T18:03:17.877Z,3.30
2018-03-21T18:05:46.264Z,3.12
2018-03-21T18:08:13.806Z,2.75
2018-03-21T18:10:41.365Z,1.85
2018-03-21T18:13:08.914Z,3.10
2018-03-21T18:15:36.448Z,2.80
2018-03-21T18:18:04.003Z,2.83
2018-03-21T18:20:31.544Z,2.25
2018-03-21T18:22:59.864Z,4.80
2018-03-21T18:25:27.403Z,5.78
2018-03-21T18:27:54.964Z,6.55
2018-03-21T18:30:22.484Z,3.95
2018-03-21T18:32:50.781Z,5.55
2018-03-21T18:35:19.112Z,2.50
2018-03-21T18:37:46.692Z,2.17
2018-03-21T18:40:14.265Z,4.62
2018-03-21T18:42:41.831Z,8.27
2018-03-21T18:45:09.404Z,3.25
2018-03-21T18:47:36.958Z,3.45
2018-03-21T18:50:04.532Z,7.22
2018-03-21T18:52:32.070Z,3.17
2018-03-21T18:54:59.654Z,3.08
2018-03-21T18:57:27.200Z,3.72
2018-03-21T18:59:54.790Z,2.55
2018-03-21T19:02:23.117Z,1.50
2018-03-21T19:04:50.677Z,4.20
2018-03-21T19:07:18.596Z,1.98
2018-03-21T19:09:46.969Z,4.57
2018-03-21T19:12:14.512Z,3.08
2018-03-21T19:14:42.099Z,4.30
2018-03-21T19:17:09.698Z,5.53
2018-03-21T19:19:37.292Z,4.22
2018-03-21T19:22:04.810Z,3.40
2018-03-21T19:24:32.366Z,3.45
2018-03-21T19:27:00.689Z,3.87
2018-03-21T19:29:28.230Z,3.33
2018-03-21T19:31:55.794Z,7.10
2018-03-21T19:34:23.407Z,6.85
2018-03-21T19:36:51.772Z,4.75
2018-03-21T19:39:19.350Z,4.95
2018-03-21T19:41:47.650Z,7.57
2018-03-21T19:44:15.232Z,6.45
2018-03-21T19:46:42.796Z,3.80
2018-03-21T19:49:10.350Z,8.68
2018-03-21T19:51:38.107Z,8.80
2018-03-21T19:54:05.724Z,6.53
2018-03-21T19:56:33.260Z,6.50
2018-03-21T19:59:00.812Z,4.65
2018-03-21T20:01:28.348Z,4.78
2018-03-21T20:03:55.921Z,5.62
2018-03-21T20:06:23.477Z,5.18
2018-03-21T20:08:51.066Z,8.07
2018-03-21T20:11:18.619Z,10.73
2018-03-21T20:13:47.134Z,7.75
2018-03-21T20:16:15.453Z,10.52
2018-03-21T20:18:43.031Z,6.80
2018-03-21T20:21:10.614Z,16.90
2018-03-21T20:23:39.705Z,7.00
2018-03-21T20:26:07.243Z,4.93
2018-03-21T20:28:34.773Z,5.93
2018-03-21T20:31:02.382Z,3.12
2018-03-21T20:33:29.872Z,4.40
2018-03-21T20:35:58.208Z,6.93
2018-03-21T20:38:25.740Z,4.40
2018-03-21T20:40:53.296Z,2.15
2018-03-21T20:43:20.845Z,7.18
2018-03-21T20:45:48.417Z,4.50
2018-03-21T20:48:15.984Z,3.75
2018-03-21T20:50:43.565Z,8.82
2018-03-21T20:53:11.096Z,13.75
2018-03-21T20:55:38.633Z,10.77
2018-03-21T20:58:06.959Z,9.10
2018-03-21T21:00:34.518Z,10.50
2018-03-21T21:03:02.100Z,9.45
2018-03-21T21:05:29.647Z,9.50
2018-03-21T21:07:57.972Z,10.18
2018-03-21T21:10:25.513Z,9.27
2018-03-21T21:12:53.061Z,14.15
2018-03-21T21:15:20.688Z,10.32
2018-03-21T21:17:48.284Z,5.53
2018-03-21T21:20:15.834Z,9.80
2018-03-21T21:22:43.400Z,10.93
2018-03-21T21:25:10.959Z,10.38
2018-03-21T21:27:38.504Z,11.05
2018-03-21T21:30:06.068Z,9.27
2018-03-21T21:32:33.606Z,8.95
2018-03-21T21:35:01.163Z,13.85
2018-03-21T21:37:28.701Z,10.35
2018-03-21T21:39:57.019Z,8.60
2018-03-21T21:42:24.576Z,7.18
2018-03-21T21:44:52.282Z,8.35
2018-03-21T21:47:20.609Z,7.20
2018-03-21T21:49:48.162Z,12.27
2018-03-21T21:52:15.725Z,7.85
2018-03-21T21:54:43.276Z,10.30
2018-03-21T21:57:10.849Z,12.98
2018-03-21T21:59:38.405Z,14.13
2018-03-21T22:02:05.953Z,13.52
2018-03-21T22:04:33.521Z,9.93
2018-03-21T22:07:01.132Z,7.45
2018-03-21T22:09:29.453Z,27.23
2018-03-21T22:11:57.018Z,10.80
2018-03-21T22:14:24.571Z,8.13
2018-03-21T22:16:52.147Z,10.82
2018-03-21T22:19:19.722Z,14.13
2018-03-21T22:21:47.300Z,9.75
2018-03-21T22:24:15.632Z,9.90
2018-03-21T22:26:43.170Z,7.47
2018-03-21T22:29:10.751Z,13.60
2018-03-21T22:31:38.284Z,9.98
2018-03-21T22:34:05.820Z,14.48
2018-03-21T22:36:33.367Z,7.85
2018-03-21T22:39:00.936Z,11.80
2018-03-21T22:41:29.245Z,10.00
2018-03-21T22:43:56.813Z,8.55
2018-03-21T22:46:24.356Z,14.05
2018-03-21T22:48:52.683Z,8.93
2018-03-21T22:51:20.244Z,9.50
2018-03-21T22:53:47.778Z,11.15
2018-03-21T22:56:15.335Z,6.87
2018-03-21T22:58:43.475Z,7.22
2018-03-21T23:01:11.804Z,6.00
2018-03-21T23:03:39.360Z,6.53
2018-03-21T23:06:06.925Z,8.35
2018-03-21T23:08:34.469Z,9.32
2018-03-21T23:11:02.635Z,8.65
2018-03-21T23:13:30.200Z,6.25
2018-03-21T23:15:59.531Z,8.10
2018-03-21T23:18:27.057Z,15.18
2018-03-21T23:20:54.626Z,12.45
2018-03-21T23:23:22.173Z,13.05
2018-03-21T23:25:50.503Z,12.65
2018-03-21T23:28:18.067Z,13.07
2018-03-21T23:30:45.644Z,10.90
2018-03-21T23:33:13.200Z,13.23
2018-03-21T23:35:40.739Z,22.05
2018-03-21T23:38:08.312Z,19.65
2018-03-21T23:40:35.867Z,13.60
2018-03-21T23:43:03.437Z,15.52
2018-03-21T23:45:30.988Z,13.27
2018-03-21T23:47:58.570Z,14.60
2018-03-21T23:50:26.148Z,14.13
2018-03-21T23:52:54.490Z,15.50
2018-03-21T23:55:22.047Z,10.10
2018-03-21T23:57:49.599Z,8.82
